createdAt,value
2022-11-27T00:01:37.496Z,102.80
2022-11-27T00:04:07.807Z,95.03
2022-11-27T00:06:38.123Z,93.40
2022-11-27T00:09:11.871Z,101.90
2022-11-27T00:11:40.431Z,99.55
2022-11-27T00:14:18.040Z,97.55
2022-11-27T00:16:45.636Z,95.93
2022-11-27T00:19:13.538Z,94.18
2022-11-27T00:21:41.306Z,97.68
2022-11-27T00:24:11.140Z,99.30
2022-11-27T00:26:44.378Z,103.53
2022-11-27T00:29:12.267Z,102.05
2022-11-27T00:31:40.014Z,101.05
2022-11-27T00:34:09.103Z,96.10
2022-11-27T00:36:37.802Z,98.30
2022-11-27T00:39:06.457Z,102.80
2022-11-27T00:41:34.316Z,88.30
2022-11-27T00:44:02.351Z,90.05
2022-11-27T00:46:33.348Z,89.63
2022-11-27T00:49:04.378Z,90.32
2022-11-27T00:51:32.223Z,97.45
2022-11-27T00:54:00.595Z,93.20
2022-11-27T00:56:32.123Z,94.63
2022-11-27T00:59:00.496Z,90.07
2022-11-27T01:01:42.524Z,85.18
2022-11-27T01:04:15.148Z,90.90
2022-11-27T01:06:43.531Z,88.88
2022-11-27T01:09:15.517Z,87.07
2022-11-27T01:11:43.446Z,86.32
2022-11-27T01:14:16.680Z,82.30
2022-11-27T01:16:44.786Z,83.43
2022-11-27T01:19:14.367Z,84.18
2022-11-27T01:21:42.430Z,79.72
2022-11-27T01:24:12.526Z,85.60
2022-11-27T01:26:41.129Z,85.35
2022-11-27T01:29:09.131Z,87.35
2022-11-27T01:31:36.973Z,91.57
2022-11-27T01:34:13.266Z,83.10
2022-11-27T01:36:41.156Z,82.75
2022-11-27T01:39:19.955Z,79.70
2022-11-27T01:41:48.995Z,86.63
2022-11-27T01:44:25.821Z,83.97
2022-11-27T01:47:10.436Z,88.43
2022-11-27T01:49:44.674Z,79.32
2022-11-27T01:52:24.039Z,82.97
2022-11-27T01:55:28.263Z,84.07
2022-11-27T01:58:07.505Z,84.43
2022-11-27T02:00:36.211Z,81.57
2022-11-27T02:03:04.102Z,86.63
2022-11-27T02:05:33.473Z,78.43
2022-11-27T02:08:07.764Z,81.30
2022-11-27T02:10:54.728Z,79.75
2022-11-27T02:13:36.949Z,86.63
2022-11-27T02:16:44.180Z,90.72
2022-11-27T02:20:03.492Z,84.85
2022-11-27T02:23:18.021Z,78.22
2022-11-27T02:26:15.658Z,76.93
2022-11-27T02:29:20.347Z,79.25
2022-11-27T02:32:26.030Z,84.38
2022-11-27T02:35:32.375Z,80.75
2022-11-27T02:38:15.451Z,85.97
2022-11-27T02:40:54.868Z,88.22
2022-11-27T02:43:40.766Z,85.35
2022-11-27T02:46:11.008Z,84.25
2022-11-27T02:48:48.002Z,78.75
2022-11-27T02:51:22.547Z,87.90
2022-11-27T02:53:59.341Z,82.43
2022-11-27T02:56:31.018Z,82.55
2022-11-27T02:59:05.236Z,83.20
2022-11-27T03:01:40.808Z,80.30
2022-11-27T03:04:15.491Z,79.68
2022-11-27T03:06:49.337Z,73.82
2022-11-27T03:09:27.906Z,78.00
2022-11-27T03:11:57.256Z,82.25
2022-11-27T03:14:25.828Z,81.88
2022-11-27T03:17:10.633Z,87.63
2022-11-27T03:19:45.868Z,84.20
2022-11-27T03:22:13.728Z,87.85
2022-11-27T03:24:41.653Z,86.10
2022-11-27T03:27:13.810Z,88.95
2022-11-27T03:29:59.028Z,93.63
2022-11-27T03:32:29.226Z,94.30
2022-11-27T03:34:57.514Z,99.00
2022-11-27T03:37:25.951Z,99.20
2022-11-27T03:39:54.181Z,98.22
2022-11-27T03:42:39.428Z,101.82
2022-11-27T03:45:38.654Z,100.25
2022-11-27T03:48:21.399Z,99.32
2022-11-27T03:51:16.526Z,104.68
2022-11-27T03:54:05.612Z,109.55
2022-11-27T03:57:03.793Z,116.00
2022-11-27T03:59:37.597Z,119.32
2022-11-27T04:02:05.242Z,113.30
2022-11-27T04:04:33.082Z,114.75
2022-11-27T04:07:00.634Z,124.63
2022-11-27T04:09:28.427Z,119.30
2022-11-27T04:11:55.917Z,127.95
2022-11-27T04:14:23.649Z,124.43
2022-11-27T04:16:51.212Z,124.60
2022-11-27T04:19:19.020Z,123.60
2022-11-27T04:21:46.528Z,123.38
2022-11-27T04:24:14.407Z,122.40
2022-11-27T04:26:41.845Z,122.75
2022-11-27T04:29:09.736Z,123.45
2022-11-27T04:31:37.303Z,132.25
2022-11-27T04:34:05.210Z,122.78
2022-11-27T04:36:38.858Z,123.57
2022-11-27T04:39:07.338Z,128.43
2022-11-27T04:41:34.955Z,124.10
2022-11-27T04:44:02.761Z,129.30
2022-11-27T04:46:30.563Z,128.85
2022-11-27T04:48:58.372Z,124.60
2022-11-27T04:51:25.942Z,135.82
2022-11-27T04:53:53.894Z,128.75
2022-11-27T04:56:21.493Z,134.25
2022-11-27T04:58:49.366Z,128.05
2022-11-27T05:01:17.020Z,146.20
2022-11-27T05:03:46.594Z,146.82
2022-11-27T05:06:14.313Z,157.65
2022-11-27T05:08:42.234Z,148.93
2022-11-27T05:11:14.289Z,154.60
2022-11-27T05:13:43.010Z,155.18
2022-11-27T05:16:10.914Z,153.83
2022-11-27T05:18:38.827Z,141.98
2022-11-27T05:21:08.559Z,151.55
2022-11-27T05:23:36.484Z,158.43
2022-11-27T05:26:04.075Z,149.55
2022-11-27T05:28:31.948Z,161.68
2022-11-27T05:30:59.872Z,148.55
2022-11-27T05:33:27.746Z,156.68
2022-11-27T05:35:55.389Z,158.52
2022-11-27T05:38:23.134Z,164.18
2022-11-27T05:40:50.642Z,147.88
2022-11-27T05:43:18.546Z,164.50
2022-11-27T05:45:46.013Z,144.45
2022-11-27T05:48:13.875Z,155.85
2022-11-27T05:50:41.409Z,153.55
2022-11-27T05:53:09.347Z,156.45
2022-11-27T05:55:36.808Z,161.70
2022-11-27T05:58:04.794Z,181.75
2022-11-27T06:00:32.482Z,219.75
2022-11-27T06:03:00.536Z,212.95
2022-11-27T06:05:28.162Z,184.32
2022-11-27T06:07:56.011Z,154.05
2022-11-27T06:10:23.653Z,165.98
2022-11-27T06:12:51.471Z,160.85
2022-11-27T06:15:18.912Z,163.15
2022-11-27T06:17:49.279Z,180.85
2022-11-27T06:20:17.386Z,163.38
2022-11-27T06:22:45.285Z,184.32
2022-11-27T06:25:12.795Z,232.65
2022-11-27T06:27:40.713Z,182.63
2022-11-27T06:30:09.456Z,177.45
2022-11-27T06:32:37.308Z,160.30
2022-11-27T06:35:05.409Z,157.63
2022-11-27T06:37:33.390Z,164.18
2022-11-27T06:40:01.001Z,165.63
2022-11-27T06:42:32.228Z,169.55
2022-11-27T06:44:59.750Z,151.65
2022-11-27T06:47:27.756Z,156.07
2022-11-27T06:49:55.328Z,153.05
2022-11-27T06:52:23.196Z,160.20
2022-11-27T06:54:50.739Z,162.63
2022-11-27T06:57:18.664Z,150.90
2022-11-27T06:59:46.418Z,148.45
2022-11-27T07:02:15.380Z,139.73
2022-11-27T07:04:43.025Z,134.43
2022-11-27T07:07:11.213Z,150.57
2022-11-27T07:09:42.057Z,132.40
2022-11-27T07:12:11.485Z,156.65
2022-11-27T07:14:39.229Z,133.20
2022-11-27T07:17:07.315Z,155.80
2022-11-27T07:19:34.849Z,142.00
2022-11-27T07:22:03.003Z,137.65
2022-11-27T07:24:30.503Z,146.73
2022-11-27T07:26:58.441Z,144.10
2022-11-27T07:29:26.105Z,145.73
2022-11-27T07:31:53.913Z,147.98
2022-11-27T07:34:22.050Z,149.40
2022-11-27T07:36:49.897Z,136.77
2022-11-27T07:39:33.886Z,134.70
2022-11-27T07:42:36.432Z,150.50
2022-11-27T07:44:55.664Z,145.75
2022-11-27T07:47:23.498Z,142.02
2022-11-27T07:49:51.105Z,152.40
2022-11-27T07:52:19.082Z,144.90
2022-11-27T07:54:46.561Z,148.02
2022-11-27T07:57:14.329Z,145.43
2022-11-27T07:59:46.987Z,149.73
2022-11-27T08:02:15.922Z,145.00
2022-11-27T08:04:43.790Z,149.27
2022-11-27T08:07:12.627Z,144.00
2022-11-27T08:09:40.357Z,141.85
2022-11-27T08:12:08.225Z,146.27
2022-11-27T08:14:36.027Z,147.55
2022-11-27T08:17:03.881Z,147.57
2022-11-27T08:19:31.549Z,155.85
2022-11-27T08:21:59.448Z,145.75
2022-11-27T08:24:26.940Z,140.60
2022-11-27T08:26:55.082Z,144.25
2022-11-27T08:29:22.864Z,149.73
2022-11-27T08:31:50.681Z,147.23
2022-11-27T08:34:18.248Z,146.70
2022-11-27T08:36:46.142Z,155.85
2022-11-27T08:39:14.383Z,149.10
2022-11-27T08:41:42.323Z,148.37
2022-11-27T08:44:09.913Z,146.77
2022-11-27T08:46:37.838Z,160.65
2022-11-27T08:49:05.400Z,163.00
2022-11-27T08:51:33.233Z,162.98
2022-11-27T08:54:00.664Z,160.27
2022-11-27T08:56:28.865Z,153.60
2022-11-27T08:58:57.272Z,159.15
2022-11-27T09:01:29.694Z,165.77
2022-11-27T09:03:57.832Z,153.15
2022-11-27T09:06:29.955Z,140.15
2022-11-27T09:08:59.939Z,147.57
2022-11-27T09:11:31.201Z,140.98
2022-11-27T09:14:03.882Z,141.10
2022-11-27T09:16:50.156Z,140.52
2022-11-27T09:19:18.207Z,136.63
2022-11-27T09:21:46.936Z,147.85
2022-11-27T09:24:14.396Z,132.98
2022-11-27T09:26:42.318Z,146.82
2022-11-27T09:29:09.791Z,141.77
2022-11-27T09:31:37.619Z,139.32
2022-11-27T09:34:05.875Z,136.43
2022-11-27T09:36:33.840Z,136.70
2022-11-27T09:39:04.239Z,141.40
2022-11-27T09:41:55.405Z,142.50
2022-11-27T09:44:45.360Z,140.57
2022-11-27T09:47:42.010Z,136.35
2022-11-27T09:50:24.375Z,152.00
2022-11-27T09:53:06.463Z,149.48
2022-11-27T09:55:47.285Z,144.18
2022-11-27T09:58:21.578Z,148.63
2022-11-27T10:00:49.145Z,134.82
2022-11-27T10:03:25.553Z,147.23
2022-11-27T10:06:22.083Z,154.25
2022-11-27T10:09:19.333Z,138.40
2022-11-27T10:12:30.692Z,141.02
2022-11-27T10:15:13.969Z,153.38
2022-11-27T10:18:01.579Z,150.10
2022-11-27T10:20:32.896Z,143.95
2022-11-27T10:23:14.858Z,137.15
2022-11-27T10:25:52.489Z,128.70
2022-11-27T10:28:48.941Z,131.95
2022-11-27T10:31:50.226Z,133.05
2022-11-27T10:34:58.557Z,133.75
2022-11-27T10:38:10.150Z,123.88
2022-11-27T10:40:49.148Z,135.75
2022-11-27T10:43:23.296Z,132.87
2022-11-27T10:46:20.467Z,119.05
2022-11-27T10:48:48.746Z,135.90
2022-11-27T10:51:29.354Z,128.40
2022-11-27T10:54:01.042Z,130.10
2022-11-27T10:57:33.413Z,122.07
2022-11-27T11:00:13.544Z,123.38
2022-11-27T11:02:41.919Z,133.43
2022-11-27T11:08:20.868Z,126.60
2022-11-27T11:10:57.901Z,126.32
2022-11-27T11:13:41.367Z,125.15
2022-11-27T11:16:14.790Z,143.90
2022-11-27T11:18:49.671Z,139.68
2022-11-27T11:21:29.693Z,131.95
2022-11-27T11:24:05.092Z,133.02
2022-11-27T11:26:51.411Z,130.60
2022-11-27T11:29:46.751Z,145.25
2022-11-27T11:32:21.580Z,145.05
2022-11-27T11:35:08.539Z,143.77
2022-11-27T11:37:45.486Z,128.15
2022-11-27T11:40:23.703Z,128.00
2022-11-27T11:43:01.257Z,139.17
2022-11-27T11:45:34.568Z,133.45
2022-11-27T11:48:28.179Z,123.40
2022-11-27T11:51:26.421Z,122.53
2022-11-27T11:54:40.207Z,122.70
2022-11-27T11:57:45.786Z,128.82
2022-11-27T12:00:18.375Z,126.90
2022-11-27T12:03:05.719Z,129.77
2022-11-27T12:06:07.194Z,124.82
2022-11-27T12:08:56.383Z,126.32
2022-11-27T12:12:18.677Z,109.82
2022-11-27T12:15:16.290Z,132.80
2022-11-27T12:18:42.973Z,111.30
2022-11-27T12:21:30.790Z,118.20
2022-11-27T12:24:29.194Z,122.15
2022-11-27T12:27:15.965Z,111.85
2022-11-27T12:30:23.880Z,104.15
2022-11-27T12:33:13.090Z,118.90
2022-11-27T12:36:07.129Z,118.22
2022-11-27T12:39:03.576Z,97.53
2022-11-27T12:42:12.438Z,103.55
2022-11-27T12:48:39.371Z,87.80
2022-11-27T12:57:33.960Z,86.85
2022-11-27T13:00:08.072Z,75.15
2022-11-27T13:03:01.133Z,74.05
2022-11-27T13:05:41.309Z,71.57
2022-11-27T13:11:36.315Z,84.85
2022-11-27T13:14:26.939Z,71.63
2022-11-27T13:17:05.252Z,70.68
2022-11-27T13:19:47.180Z,76.18
2022-11-27T13:22:27.531Z,77.15
2022-11-27T13:24:56.749Z,73.20
2022-11-27T13:27:29.529Z,76.80
2022-11-27T13:30:09.672Z,71.15
2022-11-27T13:32:48.601Z,77.72
2022-11-27T13:35:36.571Z,68.10
2022-11-27T13:38:26.476Z,68.22
2022-11-27T13:40:57.531Z,71.28
2022-11-27T13:43:47.123Z,67.10
2022-11-27T13:46:26.497Z,80.25
2022-11-27T13:49:02.884Z,79.03
2022-11-27T13:51:35.300Z,72.38
2022-11-27T13:54:29.413Z,68.32
2022-11-27T13:56:56.936Z,64.68
2022-11-27T13:59:26.095Z,59.05
2022-11-27T14:01:58.672Z,58.03
2022-11-27T14:04:29.134Z,63.13
2022-11-27T14:07:10.332Z,68.93
2022-11-27T14:09:46.577Z,61.30
2022-11-27T14:12:29.539Z,61.30
2022-11-27T14:15:16.667Z,57.85
2022-11-27T14:17:47.538Z,61.10
2022-11-27T14:20:18.176Z,48.10
2022-11-27T14:23:13.207Z,52.85
2022-11-27T14:25:41.822Z,51.83
2022-11-27T14:28:21.682Z,52.13
2022-11-27T14:30:56.967Z,52.67
2022-11-27T14:33:33.217Z,58.28
2022-11-27T14:36:08.054Z,57.08
2022-11-27T14:38:37.230Z,62.47
2022-11-27T14:43:44.144Z,45.28
2022-11-27T14:46:21.593Z,49.53
2022-11-27T14:48:57.454Z,47.28
2022-11-27T14:51:29.095Z,56.35
2022-11-27T14:54:25.603Z,37.92
2022-11-27T14:56:54.174Z,43.88
2022-11-27T14:59:24.022Z,45.38
2022-11-27T15:02:11.452Z,36.65
2022-11-27T15:04:42.262Z,29.30
2022-11-27T15:07:25.175Z,29.30
2022-11-27T15:09:56.927Z,52.13
2022-11-27T15:12:30.692Z,64.18
2022-11-27T15:15:29.028Z,65.47
2022-11-27T15:18:03.645Z,78.93
2022-11-27T15:20:42.596Z,81.63
2022-11-27T15:23:34.098Z,75.68
2022-11-27T15:26:17.816Z,84.90
2022-11-27T15:28:53.114Z,82.80
2022-11-27T15:31:38.249Z,75.45
2022-11-27T15:34:30.127Z,68.45
2022-11-27T15:37:03.813Z,67.47
2022-11-27T15:39:53.408Z,74.65
2022-11-27T15:42:22.430Z,57.80
2022-11-27T15:44:55.865Z,58.85
2022-11-27T15:47:27.523Z,57.17
2022-11-27T15:49:56.143Z,51.63
2022-11-27T15:52:23.895Z,53.90
2022-11-27T15:54:52.532Z,47.05
2022-11-27T15:57:20.369Z,52.53
2022-11-27T15:59:50.792Z,53.42
2022-11-27T16:02:20.828Z,65.60
2022-11-27T16:04:50.470Z,51.88
2022-11-27T16:07:18.080Z,67.82
2022-11-27T16:09:49.159Z,58.97
2022-11-27T16:12:16.837Z,56.28
2022-11-27T16:14:44.679Z,53.08
2022-11-27T16:17:12.338Z,52.50
2022-11-27T16:19:40.827Z,49.40
2022-11-27T16:22:08.618Z,42.67
2022-11-27T16:24:38.049Z,47.88
2022-11-27T16:27:07.260Z,53.28
2022-11-27T16:32:03.441Z,46.35
2022-11-27T16:34:31.343Z,47.78
2022-11-27T16:36:59.471Z,47.95
2022-11-27T16:39:28.620Z,50.90
2022-11-27T16:41:57.303Z,45.83
2022-11-27T16:44:25.472Z,54.95
2022-11-27T16:46:53.855Z,53.88
2022-11-27T16:49:21.992Z,54.88
2022-11-27T16:51:50.787Z,57.22
2022-11-27T16:54:19.668Z,50.38
2022-11-27T16:56:47.481Z,51.33
2022-11-27T16:59:15.707Z,53.58
2022-11-27T17:01:44.785Z,54.28
2022-11-27T17:04:20.632Z,59.75
2022-11-27T17:06:50.369Z,44.40
2022-11-27T17:09:20.491Z,54.17
2022-11-27T17:11:49.091Z,45.60
2022-11-27T17:14:19.942Z,57.05
2022-11-27T17:16:48.038Z,55.92
2022-11-27T17:19:17.765Z,48.03
2022-11-27T17:21:46.283Z,46.92
2022-11-27T17:24:17.061Z,50.67
2022-11-27T17:26:48.078Z,52.78
2022-11-27T17:29:20.982Z,48.22
2022-11-27T17:31:50.710Z,57.70
2022-11-27T17:34:19.013Z,54.10
2022-11-27T17:36:53.383Z,54.60
2022-11-27T17:39:21.826Z,60.47
2022-11-27T17:41:49.494Z,60.72
2022-11-27T17:44:17.423Z,65.13
2022-11-27T17:46:49.938Z,67.97
2022-11-27T17:49:19.459Z,80.85
2022-11-27T17:51:48.204Z,79.88
2022-11-27T17:54:16.243Z,83.15
2022-11-27T17:56:51.105Z,80.88
2022-11-27T17:59:20.338Z,74.72
2022-11-27T18:01:51.441Z,82.43
2022-11-27T18:04:20.918Z,75.18
2022-11-27T18:06:48.989Z,76.38
2022-11-27T18:09:16.958Z,77.03
2022-11-27T18:11:44.728Z,77.57
2022-11-27T18:14:13.730Z,75.43
2022-11-27T18:16:42.414Z,70.30
2022-11-27T18:19:12.072Z,64.28
2022-11-27T18:21:40.587Z,60.92
2022-11-27T18:24:22.983Z,61.50
2022-11-27T18:27:10.560Z,62.75
2022-11-27T18:29:42.495Z,58.13
2022-11-27T18:32:12.052Z,59.17
2022-11-27T18:37:09.251Z,60.15
2022-11-27T18:39:38.792Z,57.55
2022-11-27T18:42:07.768Z,53.00
2022-11-27T18:47:35.049Z,55.58
2022-11-27T18:50:06.887Z,54.30
2022-11-27T18:52:37.063Z,55.10
2022-11-27T18:57:33.751Z,50.58
2022-11-27T19:00:01.705Z,48.45
2022-11-27T19:02:29.980Z,48.05
2022-11-27T19:04:58.359Z,47.83
2022-11-27T19:07:28.168Z,51.83
2022-11-27T19:09:58.909Z,50.75
2022-11-27T19:12:26.757Z,52.25
2022-11-27T19:14:55.824Z,46.50
2022-11-27T19:17:30.844Z,47.55
2022-11-27T19:20:00.630Z,51.60
2022-11-27T19:22:28.982Z,51.70
2022-11-27T19:24:57.939Z,59.15
2022-11-27T19:27:25.978Z,64.40
2022-11-27T19:29:54.271Z,59.13
2022-11-27T19:32:22.402Z,54.50
2022-11-27T19:34:51.517Z,58.53
2022-11-27T19:37:33.467Z,58.78
2022-11-27T19:40:04.116Z,58.65
2022-11-27T19:42:32.679Z,66.40
2022-11-27T19:45:00.607Z,68.40
2022-11-27T19:47:28.187Z,60.65
2022-11-27T19:49:56.077Z,61.05
2022-11-27T19:52:23.794Z,69.53
2022-11-27T19:54:51.668Z,57.60
2022-11-27T19:57:19.427Z,61.25
2022-11-27T19:59:47.339Z,53.72
2022-11-27T20:02:18.025Z,54.92
2022-11-27T20:04:46.785Z,54.75
2022-11-27T20:07:15.180Z,64.45
2022-11-27T20:09:43.525Z,53.08
2022-11-27T20:12:11.449Z,58.17
2022-11-27T20:14:39.699Z,55.28
2022-11-27T20:17:08.012Z,56.13
2022-11-27T20:19:36.096Z,57.20
2022-11-27T20:22:03.823Z,51.45
2022-11-27T20:24:31.793Z,52.17
2022-11-27T20:26:59.988Z,52.35
2022-11-27T20:29:28.346Z,61.65
2022-11-27T20:31:55.884Z,63.05
2022-11-27T20:34:24.069Z,70.68
2022-11-27T20:36:51.725Z,61.75
2022-11-27T20:39:21.869Z,49.63
2022-11-27T20:41:52.165Z,46.47
2022-11-27T20:44:22.603Z,47.17
2022-11-27T20:46:51.131Z,40.72
2022-11-27T20:49:20.721Z,43.30
2022-11-27T20:51:50.662Z,45.75
2022-11-27T20:54:23.128Z,40.00
2022-11-27T20:56:51.694Z,44.90
2022-11-27T20:59:20.106Z,41.15
2022-11-27T21:01:51.904Z,38.00
2022-11-27T21:04:26.367Z,42.42
2022-11-27T21:06:54.511Z,45.53
2022-11-27T21:09:22.725Z,41.72
2022-11-27T21:11:50.859Z,43.15
2022-11-27T21:14:19.485Z,40.75
2022-11-27T21:16:49.954Z,38.65
2022-11-27T21:19:26.487Z,42.33
2022-11-27T21:21:57.210Z,41.05
2022-11-27T21:24:28.487Z,39.45
2022-11-27T21:26:56.767Z,38.53
2022-11-27T21:29:27.812Z,48.65
2022-11-27T21:31:57.214Z,53.88
2022-11-27T21:34:29.083Z,54.17
2022-11-27T21:36:57.535Z,54.00
2022-11-27T21:39:36.685Z,55.83
2022-11-27T21:42:14.192Z,50.90
2022-11-27T21:44:51.777Z,50.65
2022-11-27T21:47:24.850Z,54.25
2022-11-27T21:49:52.860Z,52.55
2022-11-27T21:52:20.600Z,42.60
2022-11-27T21:54:50.892Z,36.58
2022-11-27T21:57:20.721Z,35.67
2022-11-27T21:59:48.712Z,38.97
2022-11-27T22:02:16.529Z,36.63
2022-11-27T22:04:44.794Z,41.42
2022-11-27T22:07:12.621Z,36.53
2022-11-27T22:09:40.973Z,36.33
2022-11-27T22:12:08.860Z,41.70
2022-11-27T22:14:36.807Z,40.97
2022-11-27T22:17:05.130Z,42.65
2022-11-27T22:19:36.546Z,41.35
2022-11-27T22:22:08.898Z,42.95
2022-11-27T22:24:58.950Z,49.45
2022-11-27T22:27:40.605Z,54.38
2022-11-27T22:30:09.350Z,49.67
2022-11-27T22:32:37.053Z,47.92
2022-11-27T22:35:05.920Z,54.53
2022-11-27T22:37:35.541Z,50.55
2022-11-27T22:40:05.748Z,52.45
2022-11-27T22:42:34.033Z,49.80
2022-11-27T22:45:02.497Z,54.65
2022-11-27T22:47:29.981Z,48.85
2022-11-27T22:49:59.085Z,56.58
2022-11-27T22:52:28.005Z,51.35
2022-11-27T22:54:56.012Z,49.63
2022-11-27T22:57:23.828Z,46.95
2022-11-27T22:59:51.771Z,50.03
2022-11-27T23:02:19.638Z,44.45
2022-11-27T23:04:47.605Z,43.28
2022-11-27T23:07:15.278Z,40.63
2022-11-27T23:09:43.238Z,40.40
2022-11-27T23:12:10.783Z,45.63
2022-11-27T23:14:39.944Z,42.97
2022-11-27T23:17:07.850Z,47.08
2022-11-27T23:19:35.825Z,42.72
2022-11-27T23:22:03.371Z,44.35
2022-11-27T23:24:31.220Z,46.90
2022-11-27T23:26:58.821Z,48.35
2022-11-27T23:29:26.927Z,44.60
2022-11-27T23:31:54.580Z,54.08
2022-11-27T23:34:22.628Z,51.72
2022-11-27T23:36:50.285Z,53.08
2022-11-27T23:39:18.177Z,50.50
2022-11-27T23:41:46.824Z,53.20
2022-11-27T23:44:15.070Z,58.40
2022-11-27T23:46:42.777Z,56.58
2022-11-27T23:49:11.002Z,57.53
2022-11-27T23:51:38.634Z,57.13
2022-11-27T23:54:10.457Z,55.75
2022-11-27T23:56:39.935Z,58.20
2022-11-27T23:59:08.024Z,52.95
